Time;durP1;ratioP1;P1;durP2;ratioP2;P2;SDS_P1;SDS_P2;PMS_P1;PMS_P2;Temp;Humidity;BMP_temperature;BMP_pressure;BME280_temperature;BME280_humidity;BME280_pressure;Samples;Min_cycle;Max_cycle;Signal;HPM_P1;HPM_P2
2021/12/27 00:00:52;;;;;;;;;;;3.50;86.00;;;;;;5044871;28;20137;-85
2021/12/27 00:03:17;;;;;;;;;;;3.50;86.00;;;;;;5047965;28;19921;-84
2021/12/27 00:05:43;;;;;;;;;;;3.40;85.90;;;;;;5047883;28;19913;-84
2021/12/27 00:08:08;;;;;;;;;;;3.50;86.20;;;;;;5046058;28;19962;-83
2021/12/27 00:10:34;;;;;;;;;;;3.40;86.10;;;;;;5040648;28;20004;-84
2021/12/27 00:13:00;;;;;;;;;;;3.40;86.20;;;;;;5042885;28;19924;-84
2021/12/27 00:15:25;;;;;;;;;;;3.40;86.50;;;;;;5052458;28;19913;-85
2021/12/27 00:17:51;;;;;;;;;;;3.40;86.40;;;;;;5048814;28;19919;-84
2021/12/27 00:20:17;;;;;;;;;;;3.40;86.80;;;;;;5051083;28;20011;-85
2021/12/27 00:22:43;;;;;;;;;;;3.50;87.00;;;;;;5047512;28;19939;-84
2021/12/27 00:25:09;;;;;;;;;;;3.50;87.10;;;;;;5051024;28;19952;-83
2021/12/27 00:27:35;;;;;;;;;;;3.60;86.90;;;;;;5054418;28;20364;-83
2021/12/27 00:30:00;;;;;;;;;;;3.60;86.70;;;;;;5055945;28;20391;-84
2021/12/27 00:32:26;;;;;;;;;;;3.50;86.70;;;;;;5052381;28;19996;-84
2021/12/27 00:34:52;;;;;;;;;;;3.70;86.70;;;;;;5051283;28;19912;-85
2021/12/27 00:37:17;;;;;;;;;;;3.60;86.00;;;;;;5057182;28;19905;-84
2021/12/27 00:39:43;;;;;;;;;;;3.60;86.20;;;;;;5055217;28;19913;-83
2021/12/27 00:42:08;;;;;;;;;;;3.60;86.40;;;;;;5056032;28;19928;-85
2021/12/27 00:44:34;;;;;;;;;;;3.60;86.30;;;;;;5056401;28;19913;-86
2021/12/27 00:47:00;;;;;;;;;;;3.60;86.50;;;;;;5059264;28;19921;-84
2021/12/27 00:49:25;;;;;;;;;;;3.60;86.30;;;;;;5056837;28;19986;-85
2021/12/27 00:51:51;;;;;;;;;;;3.60;86.10;;;;;;5056901;28;20396;-85
2021/12/27 00:54:17;;;;;;;;;;;3.60;86.30;;;;;;5055756;28;19947;-86
2021/12/27 00:56:43;;;;;;;;;;;3.60;86.30;;;;;;5048994;28;19920;-86
2021/12/27 00:59:08;;;;;;;;;;;3.60;86.00;;;;;;5048591;28;20018;-86
2021/12/27 01:01:34;;;;;;;;;;;3.60;86.20;;;;;;5046997;28;19940;-86
2021/12/27 01:03:59;;;;;;;;;;;3.60;86.30;;;;;;5048946;28;19977;-85
2021/12/27 01:06:25;;;;;;;;;;;3.50;86.30;;;;;;5049801;28;20580;-86
2021/12/27 01:08:52;;;;;;;;;;;3.60;86.40;;;;;;5051971;28;19943;-86
2021/12/27 01:11:26;;;;;;;;;;;3.60;86.30;;;;;;5055754;28;19927;-85
2021/12/27 01:14:09;;;;;;;;;;;3.60;86.50;;;;;;5049961;28;19924;-86
2021/12/27 01:16:35;;;;;;;;;;;3.70;86.10;;;;;;5053779;28;20167;-86
2021/12/27 01:19:01;;;;;;;;;;;3.70;86.00;;;;;;5061805;28;19913;-86
2021/12/27 01:21:26;;;;;;;;;;;3.60;86.20;;;;;;5059606;28;19972;-84
2021/12/27 01:23:53;;;;;;;;;;;3.70;86.40;;;;;;5059045;28;20034;-86
2021/12/27 01:26:19;;;;;;;;;;;3.70;86.50;;;;;;5053861;28;19924;-85
2021/12/27 01:28:44;;;;;;;;;;;3.80;86.50;;;;;;5052450;28;20329;-86
2021/12/27 01:31:10;;;;;;;;;;;3.80;86.40;;;;;;5052703;28;19919;-87
2021/12/27 01:33:36;;;;;;;;;;;3.80;86.40;;;;;;5054086;28;19912;-86
2021/12/27 01:36:03;;;;;;;;;;;3.80;86.40;;;;;;5052685;28;19924;-85
2021/12/27 01:38:29;;;;;;;;;;;4.00;86.50;;;;;;5052134;28;20340;-83
2021/12/27 01:40:56;;;;;;;;;;;3.90;86.20;;;;;;5052352;28;19960;-85
2021/12/27 01:43:28;;;;;;;;;;;3.90;86.30;;;;;;5053973;28;19924;-85
2021/12/27 01:45:55;;;;;;;;;;;4.00;86.00;;;;;;5051406;28;19913;-85
2021/12/27 01:48:23;;;;;;;;;;;4.00;86.20;;;;;;5052938;28;19909;-86
2021/12/27 01:50:50;;;;;;;;;;;4.00;86.30;;;;;;5051249;28;20542;-85
2021/12/27 01:53:17;;;;;;;;;;;4.10;86.30;;;;;;5059106;28;19913;-84
2021/12/27 01:55:42;;;;;;;;;;;4.00;86.30;;;;;;5043757;28;19917;-85
2021/12/27 01:58:08;;;;;;;;;;;4.00;86.40;;;;;;5052240;28;19916;-84
2021/12/27 02:00:35;;;;;;;;;;;3.90;86.60;;;;;;5051747;28;19913;-84
2021/12/27 02:03:03;;;;;;;;;;;3.90;86.70;;;;;;5051188;28;20381;-85
2021/12/27 02:05:29;;;;;;;;;;;4.00;86.50;;;;;;5050474;28;19912;-84
2021/12/27 02:07:54;;;;;;;;;;;4.10;86.70;;;;;;5050413;28;19912;-84
2021/12/27 02:10:20;;;;;;;;;;;4.10;86.40;;;;;;5052306;28;19916;-85
2021/12/27 02:12:45;;;;;;;;;;;4.10;86.20;;;;;;5052434;28;19984;-86
2021/12/27 02:15:12;;;;;;;;;;;4.20;86.50;;;;;;5050144;28;19913;-85
2021/12/27 02:17:38;;;;;;;;;;;4.20;86.30;;;;;;5052295;28;19913;-84
2021/12/27 02:20:08;;;;;;;;;;;4.10;86.30;;;;;;5052769;28;19913;-85
2021/12/27 02:22:36;;;;;;;;;;;4.20;86.40;;;;;;5053338;28;19947;-85
2021/12/27 02:25:03;;;;;;;;;;;4.20;86.30;;;;;;5052810;28;20385;-86
2021/12/27 02:27:29;;;;;;;;;;;4.40;86.80;;;;;;5052855;28;20469;-84
2021/12/27 02:29:54;;;;;;;;;;;4.40;87.00;;;;;;5050887;28;20011;-86
2021/12/27 02:32:20;;;;;;;;;;;4.50;87.00;;;;;;5051165;28;19909;-85
2021/12/27 02:34:45;;;;;;;;;;;4.60;87.00;;;;;;5056099;28;19917;-85
2021/12/27 02:37:10;;;;;;;;;;;4.60;86.90;;;;;;5050067;28;19963;-85
2021/12/27 02:39:36;;;;;;;;;;;4.60;86.90;;;;;;5051523;28;19913;-85
2021/12/27 02:42:02;;;;;;;;;;;4.60;87.10;;;;;;5056056;28;19921;-85
2021/12/27 02:44:27;;;;;;;;;;;4.60;87.10;;;;;;5066347;28;19924;-83
2021/12/27 02:46:52;;;;;;;;;;;4.70;87.60;;;;;;5061185;28;20004;-85
2021/12/27 02:49:18;;;;;;;;;;;4.80;87.30;;;;;;5062256;28;19923;-84
2021/12/27 02:51:43;;;;;;;;;;;5.00;87.20;;;;;;5060536;28;19913;-86
2021/12/27 02:54:09;;;;;;;;;;;5.00;87.00;;;;;;5064131;28;19912;-87
2021/12/27 02:56:35;;;;;;;;;;;5.00;86.90;;;;;;5061091;28;19916;-86
2021/12/27 02:59:00;;;;;;;;;;;5.00;87.00;;;;;;5054818;28;20265;-85
2021/12/27 03:01:26;;;;;;;;;;;5.00;86.90;;;;;;5053164;28;20284;-86
2021/12/27 03:03:52;;;;;;;;;;;5.10;87.00;;;;;;5052835;28;19913;-85
2021/12/27 03:06:18;;;;;;;;;;;5.20;86.70;;;;;;5055286;28;20414;-86
2021/12/27 03:08:45;;;;;;;;;;;5.30;86.50;;;;;;5054321;28;19912;-86
2021/12/27 03:11:11;;;;;;;;;;;5.20;86.40;;;;;;5055609;28;19919;-86
2021/12/27 03:13:37;;;;;;;;;;;5.30;86.40;;;;;;5064944;28;19917;-85
2021/12/27 03:16:05;;;;;;;;;;;5.40;86.30;;;;;;5070323;28;19916;-85
2021/12/27 03:18:35;;;;;;;;;;;5.40;86.00;;;;;;5067783;28;19913;-84
2021/12/27 03:21:01;;;;;;;;;;;5.40;86.50;;;;;;5071729;28;19913;-83
2021/12/27 03:23:26;;;;;;;;;;;5.50;86.40;;;;;;5072030;28;19932;-84
2021/12/27 03:25:53;;;;;;;;;;;5.50;86.40;;;;;;5059041;28;19919;-86
2021/12/27 03:28:18;;;;;;;;;;;5.60;86.30;;;;;;5057064;28;19920;-86
2021/12/27 03:30:44;;;;;;;;;;;5.50;86.00;;;;;;5054768;28;19947;-86
2021/12/27 03:33:10;;;;;;;;;;;5.30;86.20;;;;;;5050356;28;19910;-86
2021/12/27 03:35:39;;;;;;;;;;;5.30;86.70;;;;;;5041135;28;19912;-86
2021/12/27 03:38:06;;;;;;;;;;;5.30;87.10;;;;;;5053389;28;19948;-86
2021/12/27 03:40:32;;;;;;;;;;;5.50;86.40;;;;;;5054807;28;19909;-85
2021/12/27 03:42:58;;;;;;;;;;;5.50;86.60;;;;;;5054853;28;19972;-85
2021/12/27 03:45:25;;;;;;;;;;;5.70;86.30;;;;;;5051033;28;19919;-84
2021/12/27 03:47:50;;;;;;;;;;;5.70;85.60;;;;;;5053438;28;20058;-85
2021/12/27 03:50:17;;;;;;;;;;;5.60;86.30;;;;;;5049285;28;19967;-86
2021/12/27 03:52:42;;;;;;;;;;;5.50;86.70;;;;;;5050857;28;20008;-86
2021/12/27 03:55:09;;;;;;;;;;;5.60;86.80;;;;;;5048317;28;20339;-85
2021/12/27 03:57:36;;;;;;;;;;;5.60;87.00;;;;;;5050444;28;19917;-85
2021/12/27 04:02:49;;;;;;;;;;;5.80;86.40;;;;;;5052172;28;19917;-85
2021/12/27 04:05:14;;;;;;;;;;;5.60;86.50;;;;;;5050885;28;19915;-86
2021/12/27 04:07:40;;;;;;;;;;;5.60;86.50;;;;;;5040276;28;19917;-84
2021/12/27 04:10:07;;;;;;;;;;;5.60;86.80;;;;;;5052718;28;19921;-86
2021/12/27 04:12:33;;;;;;;;;;;5.60;86.80;;;;;;5053964;28;19921;-85
2021/12/27 04:14:58;;;;;;;;;;;5.50;87.10;;;;;;5061027;28;20357;-86
2021/12/27 04:17:24;;;;;;;;;;;5.50;87.10;;;;;;5054892;28;19913;-86
2021/12/27 04:19:49;;;;;;;;;;;5.60;87.20;;;;;;5053632;28;19912;-86
2021/12/27 04:22:15;;;;;;;;;;;5.60;87.10;;;;;;5052858;28;20012;-85
2021/12/27 04:24:40;;;;;;;;;;;5.70;87.20;;;;;;5051744;28;19913;-85
2021/12/27 04:27:05;;;;;;;;;;;5.70;87.00;;;;;;5051418;28;19980;-86
2021/12/27 04:29:31;;;;;;;;;;;5.80;86.80;;;;;;5052868;28;19917;-85
2021/12/27 04:31:56;;;;;;;;;;;5.80;86.40;;;;;;5053097;28;19917;-86
2021/12/27 04:34:22;;;;;;;;;;;5.80;86.40;;;;;;5053063;28;19997;-85
2021/12/27 04:36:47;;;;;;;;;;;5.60;86.90;;;;;;5054840;28;19920;-85
2021/12/27 04:39:13;;;;;;;;;;;5.70;86.90;;;;;;5052230;28;19987;-84
2021/12/27 04:41:38;;;;;;;;;;;5.60;87.30;;;;;;5079858;22;19948;-86
2021/12/27 04:44:04;;;;;;;;;;;5.70;87.20;;;;;;5046611;28;19975;-86
2021/12/27 04:46:29;;;;;;;;;;;5.70;87.20;;;;;;5042478;28;19909;-85
2021/12/27 04:48:55;;;;;;;;;;;5.60;87.10;;;;;;5028341;28;19916;-85
2021/12/27 04:51:21;;;;;;;;;;;5.80;87.20;;;;;;5025996;28;19920;-86
2021/12/27 04:53:50;;;;;;;;;;;5.80;86.50;;;;;;5018308;28;19909;-85
2021/12/27 04:56:16;;;;;;;;;;;5.70;86.60;;;;;;5030954;28;20272;-86
2021/12/27 04:58:44;;;;;;;;;;;5.40;87.30;;;;;;5043352;28;19963;-85
2021/12/27 05:01:10;;;;;;;;;;;5.40;88.10;;;;;;5044657;28;19919;-85
2021/12/27 05:03:35;;;;;;;;;;;5.30;87.90;;;;;;5022135;28;20556;-86
2021/12/27 05:06:00;;;;;;;;;;;5.30;88.20;;;;;;5047993;28;20375;-86
2021/12/27 05:08:26;;;;;;;;;;;5.30;88.40;;;;;;5045437;28;20004;-85
2021/12/27 05:10:51;;;;;;;;;;;5.20;88.40;;;;;;5047098;28;19920;-85
2021/12/27 05:13:18;;;;;;;;;;;5.20;88.70;;;;;;5031149;28;19917;-85
2021/12/27 05:15:43;;;;;;;;;;;5.30;88.50;;;;;;5016268;28;19912;-85
2021/12/27 05:18:09;;;;;;;;;;;5.30;88.50;;;;;;5043522;28;20017;-85
2021/12/27 05:20:34;;;;;;;;;;;5.40;88.30;;;;;;5031631;28;19917;-86
2021/12/27 05:23:00;;;;;;;;;;;5.30;88.10;;;;;;5051191;28;19998;-86
2021/12/27 05:25:25;;;;;;;;;;;5.30;88.10;;;;;;5038628;28;19919;-85
2021/12/27 05:27:51;;;;;;;;;;;5.10;88.10;;;;;;5063871;28;19928;-85
2021/12/27 05:30:17;;;;;;;;;;;5.10;88.30;;;;;;5036013;28;19917;-86
2021/12/27 05:32:44;;;;;;;;;;;5.10;88.60;;;;;;5037853;28;19909;-86
2021/12/27 05:35:10;;;;;;;;;;;5.10;88.80;;;;;;5015280;28;19921;-85
2021/12/27 05:37:37;;;;;;;;;;;5.20;88.60;;;;;;5048911;28;20389;-85
2021/12/27 05:40:06;;;;;;;;;;;5.10;88.60;;;;;;5025033;28;19995;-85
2021/12/27 05:42:33;;;;;;;;;;;5.00;88.80;;;;;;5045066;28;19978;-85
2021/12/27 05:44:58;;;;;;;;;;;5.10;89.00;;;;;;5018688;28;20007;-86
2021/12/27 05:47:23;;;;;;;;;;;5.10;89.00;;;;;;5045081;28;19965;-85
2021/12/27 05:49:49;;;;;;;;;;;5.00;89.00;;;;;;5029486;28;19920;-86
2021/12/27 05:52:15;;;;;;;;;;;5.00;89.10;;;;;;5032066;28;20460;-85
2021/12/27 05:54:40;;;;;;;;;;;5.10;89.00;;;;;;5048864;28;20397;-86
2021/12/27 05:57:05;;;;;;;;;;;5.10;88.90;;;;;;5035663;28;20314;-86
2021/12/27 05:59:31;;;;;;;;;;;5.00;88.90;;;;;;5037542;28;20043;-85
2021/12/27 06:01:56;;;;;;;;;;;5.00;88.90;;;;;;5015213;28;19913;-85
2021/12/27 06:04:22;;;;;;;;;;;5.10;89.00;;;;;;5047778;28;19963;-85
2021/12/27 06:06:47;;;;;;;;;;;5.00;88.90;;;;;;5039644;28;19917;-85
2021/12/27 06:09:13;;;;;;;;;;;5.10;89.10;;;;;;5014786;28;20388;-85
2021/12/27 06:11:38;;;;;;;;;;;5.10;89.00;;;;;;5027552;28;19913;-87
2021/12/27 06:14:07;;;;;;;;;;;5.10;89.00;;;;;;5024666;28;19946;-84
2021/12/27 06:16:32;;;;;;;;;;;5.10;88.90;;;;;;5056348;28;19972;-84
2021/12/27 06:18:58;;;;;;;;;;;5.10;88.80;;;;;;5045945;28;19913;-85
2021/12/27 06:21:23;;;;;;;;;;;5.10;88.90;;;;;;5020380;28;20402;-85
2021/12/27 06:23:49;;;;;;;;;;;5.10;88.90;;;;;;5015283;28;19920;-85
2021/12/27 06:26:14;;;;;;;;;;;5.10;88.90;;;;;;5014932;28;19932;-86
2021/12/27 06:28:43;;;;;;;;;;;5.10;89.00;;;;;;5028708;28;19963;-85
2021/12/27 06:31:16;;;;;;;;;;;5.10;89.10;;;;;;5033912;28;19917;-85
2021/12/27 06:33:42;;;;;;;;;;;5.20;89.20;;;;;;5018152;28;19937;-84
2021/12/27 06:36:07;;;;;;;;;;;5.20;89.10;;;;;;5015250;28;19917;-85
2021/12/27 06:38:33;;;;;;;;;;;5.20;89.20;;;;;;5028954;28;20050;-85
2021/12/27 06:41:00;;;;;;;;;;;5.30;89.10;;;;;;5047284;28;20011;-86
2021/12/27 06:43:26;;;;;;;;;;;5.30;89.00;;;;;;5038918;28;19984;-85
2021/12/27 06:45:52;;;;;;;;;;;5.40;89.10;;;;;;5048068;28;19960;-85
2021/12/27 06:48:17;;;;;;;;;;;5.30;89.20;;;;;;5014943;28;20441;-86
2021/12/27 06:50:43;;;;;;;;;;;5.30;89.00;;;;;;5020732;28;19917;-86
2021/12/27 06:53:08;;;;;;;;;;;5.30;89.00;;;;;;5023331;28;20008;-86
2021/12/27 06:55:34;;;;;;;;;;;5.30;88.90;;;;;;5036320;28;19919;-86
2021/12/27 06:57:59;;;;;;;;;;;5.40;89.00;;;;;;5020399;28;19920;-87
2021/12/27 07:00:25;;;;;;;;;;;5.50;88.70;;;;;;5041583;28;19921;-86
2021/12/27 07:02:50;;;;;;;;;;;5.40;88.80;;;;;;5061409;28;19945;-86
2021/12/27 07:05:17;;;;;;;;;;;5.40;88.90;;;;;;5017787;28;19909;-87
2021/12/27 07:07:43;;;;;;;;;;;5.40;88.80;;;;;;5002966;28;19917;-85
2021/12/27 07:10:10;;;;;;;;;;;5.30;89.10;;;;;;5034832;28;19923;-85
2021/12/27 07:12:35;;;;;;;;;;;5.40;88.90;;;;;;5005888;28;20016;-85
2021/12/27 07:15:01;;;;;;;;;;;5.40;88.90;;;;;;5014671;28;19980;-84
2021/12/27 07:17:27;;;;;;;;;;;5.40;88.90;;;;;;5054236;28;19917;-84
2021/12/27 07:19:52;;;;;;;;;;;5.50;88.70;;;;;;5023782;28;19952;-84
2021/12/27 07:22:18;;;;;;;;;;;5.50;88.80;;;;;;5029314;28;19945;-84
2021/12/27 07:24:44;;;;;;;;;;;5.40;88.80;;;;;;5019652;28;19920;-84
2021/12/27 07:27:09;;;;;;;;;;;5.50;88.90;;;;;;5049259;28;19909;-84
2021/12/27 07:29:35;;;;;;;;;;;5.40;88.90;;;;;;5032588;28;19923;-86
2021/12/27 07:32:01;;;;;;;;;;;5.50;89.00;;;;;;5014100;28;19959;-85
2021/12/27 07:34:27;;;;;;;;;;;5.50;88.90;;;;;;5022307;28;19909;-85
2021/12/27 07:36:54;;;;;;;;;;;5.60;89.00;;;;;;5037557;28;19917;-87
2021/12/27 07:39:19;;;;;;;;;;;5.60;88.70;;;;;;5042000;28;19983;-83
2021/12/27 07:41:45;;;;;;;;;;;5.60;88.70;;;;;;5058218;28;19948;-84
2021/12/27 07:44:10;;;;;;;;;;;5.60;88.90;;;;;;5033861;28;19905;-85
2021/12/27 07:46:40;;;;;;;;;;;5.60;88.80;;;;;;5044503;28;19913;-84
2021/12/27 07:49:06;;;;;;;;;;;5.60;88.90;;;;;;5055289;28;19939;-85
2021/12/27 07:51:32;;;;;;;;;;;5.70;88.80;;;;;;5060811;28;20371;-86
2021/12/27 07:53:57;;;;;;;;;;;5.60;88.80;;;;;;5019279;28;20272;-85
2021/12/27 07:56:22;;;;;;;;;;;5.60;88.90;;;;;;5019562;28;20283;-85
2021/12/27 07:58:48;;;;;;;;;;;5.70;88.80;;;;;;5034073;28;19923;-84
2021/12/27 08:01:13;;;;;;;;;;;5.60;88.70;;;;;;5022283;28;20143;-84
2021/12/27 08:03:39;;;;;;;;;;;5.60;88.80;;;;;;5022971;28;19921;-86
2021/12/27 08:06:04;;;;;;;;;;;5.70;88.90;;;;;;5022445;28;19917;-85
2021/12/27 08:08:30;;;;;;;;;;;5.60;88.70;;;;;;5042297;28;20538;-85
2021/12/27 08:10:55;;;;;;;;;;;5.60;89.00;;;;;;5020777;28;19932;-84
2021/12/27 08:13:21;;;;;;;;;;;5.50;89.20;;;;;;5039936;28;19953;-85
2021/12/27 08:15:46;;;;;;;;;;;5.60;89.60;;;;;;5036531;28;20338;-86
2021/12/27 08:18:12;;;;;;;;;;;5.70;89.20;;;;;;5027914;28;19917;-85
2021/12/27 08:20:37;;;;;;;;;;;5.70;89.30;;;;;;5024781;28;20340;-85
2021/12/27 08:23:03;;;;;;;;;;;5.80;89.20;;;;;;5022678;28;19920;-86
2021/12/27 08:25:30;;;;;;;;;;;5.80;89.00;;;;;;5036719;28;19920;-86
2021/12/27 08:27:55;;;;;;;;;;;5.90;88.90;;;;;;5019568;28;19924;-85
2021/12/27 08:30:21;;;;;;;;;;;5.90;88.80;;;;;;5041154;28;19913;-85
2021/12/27 08:32:47;;;;;;;;;;;5.90;88.80;;;;;;5035402;28;19913;-85
2021/12/27 08:35:13;;;;;;;;;;;6.00;88.90;;;;;;5016833;28;19920;-86
2021/12/27 08:37:38;;;;;;;;;;;6.00;88.60;;;;;;5034815;28;19957;-86
2021/12/27 08:40:04;;;;;;;;;;;5.90;88.70;;;;;;5031880;28;20585;-87
2021/12/27 08:42:30;;;;;;;;;;;6.10;88.40;;;;;;5015975;28;21685;-87
2021/12/27 08:44:55;;;;;;;;;;;6.00;88.30;;;;;;5033781;28;19920;-87
2021/12/27 08:47:21;;;;;;;;;;;6.10;88.50;;;;;;5016115;28;20021;-87
2021/12/27 08:49:47;;;;;;;;;;;6.10;88.50;;;;;;5048661;28;19921;-86
2021/12/27 08:52:13;;;;;;;;;;;6.10;88.30;;;;;;5015255;28;19913;-87
2021/12/27 08:54:38;;;;;;;;;;;6.10;88.30;;;;;;5014355;28;19921;-87
2021/12/27 08:57:05;;;;;;;;;;;6.10;88.30;;;;;;5014637;28;19913;-87
2021/12/27 08:59:31;;;;;;;;;;;6.20;88.70;;;;;;5014802;28;19913;-86
2021/12/27 09:01:56;;;;;;;;;;;6.20;88.30;;;;;;5016170;28;20008;-87
2021/12/27 09:04:23;;;;;;;;;;;6.30;88.30;;;;;;5015505;28;19922;-87
2021/12/27 09:06:48;;;;;;;;;;;6.60;87.90;;;;;;5015975;28;19913;-86
2021/12/27 09:09:15;;;;;;;;;;;6.70;87.50;;;;;;5015220;28;19928;-87
2021/12/27 09:11:41;;;;;;;;;;;6.60;87.40;;;;;;5012698;28;20299;-86
2021/12/27 09:14:06;;;;;;;;;;;6.70;87.20;;;;;;5047451;28;19910;-86
2021/12/27 09:16:33;;;;;;;;;;;6.60;87.50;;;;;;5017312;28;20371;-87
2021/12/27 09:18:58;;;;;;;;;;;6.60;87.20;;;;;;5027263;28;19901;-87
2021/12/27 09:21:24;;;;;;;;;;;6.60;87.10;;;;;;5023890;28;19927;-87
2021/12/27 09:23:50;;;;;;;;;;;6.60;87.30;;;;;;5018537;28;20000;-86
2021/12/27 09:26:16;;;;;;;;;;;6.50;87.70;;;;;;5031751;28;19915;-87
2021/12/27 09:28:41;;;;;;;;;;;6.50;87.80;;;;;;5022872;28;19941;-88
2021/12/27 09:31:07;;;;;;;;;;;6.60;87.80;;;;;;5038917;28;19917;-88
2021/12/27 09:33:32;;;;;;;;;;;6.60;87.40;;;;;;5060776;28;19909;-87
2021/12/27 09:35:58;;;;;;;;;;;6.50;87.90;;;;;;5028972;28;19913;-87
2021/12/27 09:38:23;;;;;;;;;;;6.40;88.10;;;;;;5028241;28;19979;-87
2021/12/27 09:40:49;;;;;;;;;;;6.50;88.20;;;;;;5036981;28;19913;-87
2021/12/27 09:43:14;;;;;;;;;;;6.40;88.40;;;;;;5012033;28;19926;-87
2021/12/27 09:45:40;;;;;;;;;;;6.30;88.70;;;;;;5017855;28;20457;-86
2021/12/27 09:48:05;;;;;;;;;;;6.50;88.50;;;;;;5048174;28;19956;-86
2021/12/27 09:50:40;;;;;;;;;;;6.50;88.30;;;;;;5033029;28;19917;-86
2021/12/27 09:53:06;;;;;;;;;;;6.50;88.70;;;;;;5015677;28;19921;-86
2021/12/27 09:55:31;;;;;;;;;;;6.50;88.50;;;;;;5040422;28;19920;-88
2021/12/27 09:57:57;;;;;;;;;;;6.50;88.80;;;;;;5041612;28;20061;-88
2021/12/27 10:00:23;;;;;;;;;;;6.60;88.20;;;;;;5032538;28;19913;-88
2021/12/27 10:02:50;;;;;;;;;;;6.50;88.40;;;;;;5023520;28;19917;-88
2021/12/27 10:05:16;;;;;;;;;;;6.50;88.50;;;;;;5040593;28;19905;-89
2021/12/27 10:07:41;;;;;;;;;;;6.60;88.40;;;;;;5046450;28;19929;-87
2021/12/27 10:10:10;;;;;;;;;;;6.60;88.40;;;;;;5009661;28;20280;-88
2021/12/27 10:12:38;;;;;;;;;;;6.80;88.00;;;;;;5047778;28;21269;-89
2021/12/27 10:15:05;;;;;;;;;;;6.80;88.00;;;;;;5032895;28;20395;-86
2021/12/27 10:17:32;;;;;;;;;;;6.80;87.90;;;;;;5023961;28;20375;-85
2021/12/27 10:20:08;;;;;;;;;;;6.70;88.20;;;;;;5021067;28;19920;-86
2021/12/27 10:22:36;;;;;;;;;;;6.90;88.00;;;;;;5032333;28;19913;-85
2021/12/27 10:25:07;;;;;;;;;;;7.00;87.50;;;;;;5015016;28;19976;-87
2021/12/27 10:27:35;;;;;;;;;;;7.00;87.60;;;;;;5023279;28;20414;-85
2021/12/27 10:30:08;;;;;;;;;;;6.90;87.40;;;;;;5010199;28;19987;-85
2021/12/27 10:32:33;;;;;;;;;;;7.10;87.20;;;;;;5034681;28;19910;-85
2021/12/27 10:34:59;;;;;;;;;;;6.90;87.50;;;;;;5036724;28;19905;-86
2021/12/27 10:37:24;;;;;;;;;;;7.00;88.00;;;;;;5017888;28;19927;-87
2021/12/27 10:39:55;;;;;;;;;;;7.20;87.30;;;;;;5037924;28;19913;-87
2021/12/27 10:42:25;;;;;;;;;;;7.30;87.20;;;;;;5149277;22;19988;-84
2021/12/27 10:44:53;;;;;;;;;;;7.30;87.00;;;;;;5054054;28;20011;-84
2021/12/27 10:47:39;;;;;;;;;;;7.20;87.20;;;;;;5038971;28;19913;-84
2021/12/27 10:50:28;;;;;;;;;;;7.30;86.90;;;;;;5024372;28;19928;-85
2021/12/27 10:52:58;;;;;;;;;;;7.50;86.40;;;;;;5019927;28;19980;-83
2021/12/27 10:55:46;;;;;;;;;;;7.50;86.70;;;;;;5025686;28;19913;-83
2021/12/27 10:58:14;;;;;;;;;;;7.60;86.70;;;;;;5037626;28;19956;-84
2021/12/27 11:00:41;;;;;;;;;;;7.60;86.20;;;;;;5027702;28;19921;-83
2021/12/27 11:03:07;;;;;;;;;;;7.80;86.00;;;;;;5034551;28;19981;-83
2021/12/27 11:05:34;;;;;;;;;;;7.90;86.00;;;;;;5042317;28;20015;-85
2021/12/27 11:08:03;;;;;;;;;;;7.80;86.10;;;;;;5022456;28;20405;-88
2021/12/27 11:10:31;;;;;;;;;;;7.90;85.80;;;;;;5048654;28;19990;-85
2021/12/27 11:12:59;;;;;;;;;;;7.90;86.10;;;;;;5018914;28;19913;-85
2021/12/27 11:15:26;;;;;;;;;;;8.00;85.00;;;;;;5021848;28;19913;-84
2021/12/27 11:17:52;;;;;;;;;;;8.10;85.10;;;;;;5022260;28;19989;-83
2021/12/27 11:20:17;;;;;;;;;;;8.10;84.90;;;;;;5045186;28;19943;-82
2021/12/27 11:22:44;;;;;;;;;;;8.10;85.10;;;;;;5028241;28;20420;-83
2021/12/27 11:25:39;;;;;;;;;;;8.20;85.10;;;;;;5045224;28;19913;-85
2021/12/27 11:28:05;;;;;;;;;;;8.30;85.00;;;;;;5017597;28;19913;-84
2021/12/27 11:30:32;;;;;;;;;;;8.50;84.80;;;;;;5023986;28;19970;-84
2021/12/27 11:33:20;;;;;;;;;;;8.40;84.60;;;;;;5026102;28;19917;-83
2021/12/27 11:35:58;;;;;;;;;;;8.40;84.60;;;;;;5020127;28;19921;-85
2021/12/27 11:38:31;;;;;;;;;;;8.50;84.60;;;;;;5024262;28;19913;-85
2021/12/27 11:40:57;;;;;;;;;;;8.70;84.40;;;;;;5042824;28;19920;-82
2021/12/27 11:43:23;;;;;;;;;;;8.80;83.90;;;;;;5029250;28;19984;-81
2021/12/27 11:45:53;;;;;;;;;;;8.70;84.00;;;;;;5028036;28;19924;-81
2021/12/27 11:48:19;;;;;;;;;;;8.70;84.70;;;;;;5024499;28;19917;-81
2021/12/27 11:51:00;;;;;;;;;;;8.80;84.00;;;;;;5050976;28;20414;-81
2021/12/27 11:53:31;;;;;;;;;;;8.90;83.80;;;;;;5038320;28;19924;-80
2021/12/27 11:55:56;;;;;;;;;;;9.10;83.40;;;;;;5043051;28;19941;-82
2021/12/27 11:58:30;;;;;;;;;;;9.00;83.30;;;;;;5051992;28;19921;-82
2021/12/27 12:00:55;;;;;;;;;;;8.80;83.90;;;;;;5022751;28;19920;-82
2021/12/27 12:03:34;;;;;;;;;;;8.70;84.50;;;;;;5032158;28;19913;-79
2021/12/27 12:05:59;;;;;;;;;;;8.90;83.90;;;;;;5032981;28;20068;-82
2021/12/27 12:08:43;;;;;;;;;;;8.80;84.00;;;;;;5032263;28;20105;-82
2021/12/27 12:11:10;;;;;;;;;;;8.90;84.20;;;;;;5027975;28;20012;-80
2021/12/27 12:13:47;;;;;;;;;;;8.80;84.10;;;;;;5048635;28;19912;-82
2021/12/27 12:16:16;;;;;;;;;;;8.70;84.30;;;;;;5042877;28;19912;-81
2021/12/27 12:18:50;;;;;;;;;;;8.60;84.90;;;;;;5051149;28;20479;-83
2021/12/27 12:21:31;;;;;;;;;;;8.70;84.60;;;;;;5025295;28;19991;-83
2021/12/27 12:23:57;;;;;;;;;;;8.80;84.20;;;;;;5029614;28;19975;-81
2021/12/27 12:26:23;;;;;;;;;;;8.90;84.30;;;;;;5033658;28;19917;-82
2021/12/27 12:28:57;;;;;;;;;;;9.00;83.90;;;;;;5037960;28;19972;-82
2021/12/27 12:31:27;;;;;;;;;;;9.00;84.10;;;;;;5053218;28;21276;-82
2021/12/27 12:33:53;;;;;;;;;;;8.90;83.90;;;;;;5052505;28;19920;-84
2021/12/27 12:36:19;;;;;;;;;;;8.80;84.00;;;;;;5047392;28;20003;-81
2021/12/27 12:38:44;;;;;;;;;;;8.60;84.80;;;;;;5052822;28;19972;-81
2021/12/27 12:41:15;;;;;;;;;;;8.60;85.00;;;;;;5032724;28;19980;-80
2021/12/27 12:43:57;;;;;;;;;;;8.70;84.90;;;;;;5052103;28;19939;-79
2021/12/27 12:46:36;;;;;;;;;;;8.80;84.20;;;;;;5050991;28;19913;-83
2021/12/27 12:49:10;;;;;;;;;;;9.00;83.80;;;;;;5034353;28;19909;-82
2021/12/27 12:51:45;;;;;;;;;;;9.00;83.50;;;;;;5047872;28;19929;-82
2021/12/27 12:54:23;;;;;;;;;;;8.70;84.50;;;;;;5048731;28;19917;-83
2021/12/27 12:57:08;;;;;;;;;;;8.70;84.70;;;;;;5038095;28;20355;-83
2021/12/27 12:59:38;;;;;;;;;;;8.70;84.80;;;;;;5053231;28;19984;-83
2021/12/27 13:02:03;;;;;;;;;;;8.90;84.30;;;;;;5032100;28;21054;-83
2021/12/27 13:04:41;;;;;;;;;;;8.90;84.60;;;;;;5045285;28;19913;-83
2021/12/27 13:07:07;;;;;;;;;;;8.90;84.70;;;;;;5063917;28;19917;-81
2021/12/27 13:09:40;;;;;;;;;;;8.80;84.90;;;;;;5043064;28;19979;-81
2021/12/27 13:12:05;;;;;;;;;;;9.10;84.20;;;;;;5040379;28;19909;-81
2021/12/27 13:14:31;;;;;;;;;;;9.30;83.40;;;;;;5047673;28;19917;-81
2021/12/27 13:16:56;;;;;;;;;;;9.30;83.00;;;;;;5021025;28;19936;-81
2021/12/27 13:19:22;;;;;;;;;;;9.30;82.80;;;;;;5038201;28;20446;-81
2021/12/27 13:21:47;;;;;;;;;;;9.20;83.30;;;;;;5037775;28;21273;-82
2021/12/27 13:24:12;;;;;;;;;;;9.10;83.90;;;;;;5022400;28;19913;-83
2021/12/27 13:26:40;;;;;;;;;;;8.90;84.40;;;;;;5025232;28;19916;-82
2021/12/27 13:29:05;;;;;;;;;;;9.00;84.50;;;;;;5034226;28;19913;-82
2021/12/27 13:31:33;;;;;;;;;;;9.10;83.90;;;;;;5041477;28;20292;-82
2021/12/27 13:34:01;;;;;;;;;;;9.10;83.80;;;;;;5050576;28;20015;-83
2021/12/27 13:36:50;;;;;;;;;;;9.10;84.00;;;;;;5036427;28;19999;-81
2021/12/27 13:39:17;;;;;;;;;;;9.10;84.40;;;;;;5074946;28;20015;-81
2021/12/27 13:42:04;;;;;;;;;;;9.00;84.10;;;;;;5029626;28;19917;-81
2021/12/27 13:44:34;;;;;;;;;;;9.10;83.80;;;;;;5056143;28;19917;-82
2021/12/27 13:47:03;;;;;;;;;;;9.20;83.30;;;;;;5030700;28;19914;-82
2021/12/27 13:49:31;;;;;;;;;;;9.20;83.50;;;;;;5029468;28;20010;-82
2021/12/27 13:52:18;;;;;;;;;;;9.40;83.00;;;;;;5023454;28;19920;-83
2021/12/27 13:54:43;;;;;;;;;;;9.40;82.50;;;;;;5030193;28;19913;-82
2021/12/27 13:57:08;;;;;;;;;;;9.20;83.10;;;;;;5044206;28;19923;-81
2021/12/27 13:59:38;;;;;;;;;;;9.10;83.50;;;;;;5037375;28;19921;-81
2021/12/27 14:02:05;;;;;;;;;;;9.10;83.50;;;;;;5036346;28;19979;-82
2021/12/27 14:04:31;;;;;;;;;;;9.10;83.70;;;;;;5034773;28;20256;-81
2021/12/27 14:06:58;;;;;;;;;;;9.10;83.70;;;;;;5052428;28;20004;-81
2021/12/27 14:09:25;;;;;;;;;;;9.10;83.70;;;;;;5053194;28;19909;-81
2021/12/27 14:11:51;;;;;;;;;;;9.00;84.10;;;;;;5041009;28;19920;-82
2021/12/27 14:14:32;;;;;;;;;;;8.80;84.70;;;;;;5056380;28;19913;-81
2021/12/27 14:17:04;;;;;;;;;;;8.80;85.00;;;;;;5028908;28;19925;-81
2021/12/27 14:19:30;;;;;;;;;;;8.70;85.10;;;;;;5027557;28;19974;-85
2021/12/27 14:21:58;;;;;;;;;;;8.90;84.80;;;;;;5031906;28;19947;-83
2021/12/27 14:24:31;;;;;;;;;;;8.80;85.10;;;;;;5056413;28;19913;-84
2021/12/27 14:26:57;;;;;;;;;;;8.70;85.40;;;;;;5059111;28;19913;-82
2021/12/27 14:29:22;;;;;;;;;;;8.70;85.40;;;;;;5045816;28;19936;-83
2021/12/27 14:31:58;;;;;;;;;;;8.70;85.50;;;;;;5030326;28;19924;-81
2021/12/27 14:34:52;;;;;;;;;;;;;;;;;;;;;